sensor_id;sensor_type;location;lat;lon;timestamp;temperature;humidity
39397;DHT22;25615;48.602;1.696;2024-03-29T13:41:13;20.30;98.50
39397;DHT22;25615;48.602;1.696;2024-03-29T13:43:42;20.80;97.50
39397;DHT22;25615;48.602;1.696;2024-03-29T13:46:08;21.00;97.10
39397;DHT22;25615;48.602;1.696;2024-03-29T13:57:28;18.10;89.70
39397;DHT22;25615;48.602;1.696;2024-03-29T13:59:53;17.00;92.90
39397;DHT22;25615;48.602;1.696;2024-03-29T14:02:19;16.20;93.50
39397;DHT22;25615;48.602;1.696;2024-03-29T14:04:46;15.70;95.70
39397;DHT22;25615;48.602;1.696;2024-03-29T14:07:13;15.30;95.20
39397;DHT22;25615;48.602;1.696;2024-03-29T14:09:40;15.10;96.60
39397;DHT22;25615;48.602;1.696;2024-03-29T14:12:06;14.90;97.00
39397;DHT22;25615;48.602;1.696;2024-03-29T14:14:32;14.80;96.90
39397;DHT22;25615;48.602;1.696;2024-03-29T14:16:58;14.60;97.40
39397;DHT22;25615;48.602;1.696;2024-03-29T14:19:29;14.60;98.50
39397;DHT22;25615;48.602;1.696;2024-03-29T14:21:55;14.60;98.90
39397;DHT22;25615;48.602;1.696;2024-03-29T14:24:21;14.50;98.50
39397;DHT22;25615;48.602;1.696;2024-03-29T14:26:50;14.50;99.10
39397;DHT22;25615;48.602;1.696;2024-03-29T14:29:16;14.50;99.50
39397;DHT22;25615;48.602;1.696;2024-03-29T14:31:43;14.50;99.90
39397;DHT22;25615;48.602;1.696;2024-03-29T14:34:10;14.50;99.90
39397;DHT22;25615;48.602;1.696;2024-03-29T14:36:36;14.40;99.90
39397;DHT22;25615;48.602;1.696;2024-03-29T14:39:01;14.30;99.80
39397;DHT22;25615;48.602;1.696;2024-03-29T14:41:28;14.20;99.90
39397;DHT22;25615;48.602;1.696;2024-03-29T14:43:54;14.10;99.90
39397;DHT22;25615;48.602;1.696;2024-03-29T14:46:21;14.00;99.90
39397;DHT22;25615;48.602;1.696;2024-03-29T14:48:47;14.00;99.90
39397;DHT22;25615;48.602;1.696;2024-03-29T14:51:13;13.90;99.90
39397;DHT22;25615;48.602;1.696;2024-03-29T14:53:38;13.90;99.90
39397;DHT22;25615;48.602;1.696;2024-03-29T14:56:04;13.90;99.90
39397;DHT22;25615;48.602;1.696;2024-03-29T14:58:30;14.00;99.90
39397;DHT22;25615;48.602;1.696;2024-03-29T15:00:55;14.20;99.90
39397;DHT22;25615;48.602;1.696;2024-03-29T15:03:21;14.30;99.90
39397;DHT22;25615;48.602;1.696;2024-03-29T15:05:48;14.30;99.90
39397;DHT22;25615;48.602;1.696;2024-03-29T15:08:13;14.40;99.90
39397;DHT22;25615;48.602;1.696;2024-03-29T15:10:43;14.30;99.90
39397;DHT22;25615;48.602;1.696;2024-03-29T15:13:08;14.30;99.70
39397;DHT22;25615;48.602;1.696;2024-03-29T15:15:34;14.30;99.90
39397;DHT22;25615;48.602;1.696;2024-03-29T15:18:03;14.40;99.90
39397;DHT22;25615;48.602;1.696;2024-03-29T15:20:28;14.40;99.40
39397;DHT22;25615;48.602;1.696;2024-03-29T15:22:55;14.30;99.50
39397;DHT22;25615;48.602;1.696;2024-03-29T15:25:22;14.30;99.00
39397;DHT22;25615;48.602;1.696;2024-03-29T15:27:47;14.40;99.90
39397;DHT22;25615;48.602;1.696;2024-03-29T15:30:31;14.40;99.90
39397;DHT22;25615;48.602;1.696;2024-03-29T15:32:59;14.30;99.90
39397;DHT22;25615;48.602;1.696;2024-03-29T15:35:25;14.20;99.90
39397;DHT22;25615;48.602;1.696;2024-03-29T15:37:50;14.10;99.90
39397;DHT22;25615;48.602;1.696;2024-03-29T15:40:16;14.10;99.90
39397;DHT22;25615;48.602;1.696;2024-03-29T15:42:42;14.00;99.90
39397;DHT22;25615;48.602;1.696;2024-03-29T15:45:08;14.00;99.90
39397;DHT22;25615;48.602;1.696;2024-03-29T15:47:34;13.90;99.90
39397;DHT22;25615;48.602;1.696;2024-03-29T15:50:00;13.90;99.90
39397;DHT22;25615;48.602;1.696;2024-03-29T15:52:26;13.90;99.90
39397;DHT22;25615;48.602;1.696;2024-03-29T15:54:51;13.80;99.90
39397;DHT22;25615;48.602;1.696;2024-03-29T15:57:19;13.90;99.90
39397;DHT22;25615;48.602;1.696;2024-03-29T15:59:45;13.80;99.90
39397;DHT22;25615;48.602;1.696;2024-03-29T16:02:13;13.80;99.90
39397;DHT22;25615;48.602;1.696;2024-03-29T16:04:39;13.80;99.90
39397;DHT22;25615;48.602;1.696;2024-03-29T16:07:04;13.70;99.90
39397;DHT22;25615;48.602;1.696;2024-03-29T16:09:30;13.70;99.90
39397;DHT22;25615;48.602;1.696;2024-03-29T16:11:56;13.70;99.90
39397;DHT22;25615;48.602;1.696;2024-03-29T16:14:21;13.50;99.90
39397;DHT22;25615;48.602;1.696;2024-03-29T16:16:48;13.50;99.90
39397;DHT22;25615;48.602;1.696;2024-03-29T16:19:14;13.50;99.90
39397;DHT22;25615;48.602;1.696;2024-03-29T16:21:39;13.50;99.90
39397;DHT22;25615;48.602;1.696;2024-03-29T16:24:05;13.50;99.90
39397;DHT22;25615;48.602;1.696;2024-03-29T16:26:31;13.40;99.90
39397;DHT22;25615;48.602;1.696;2024-03-29T16:28:56;13.40;99.90
39397;DHT22;25615;48.602;1.696;2024-03-29T16:31:28;13.30;99.90
39397;DHT22;25615;48.602;1.696;2024-03-29T16:33:53;13.20;99.90
39397;DHT22;25615;48.602;1.696;2024-03-29T16:36:19;13.20;99.90
39397;DHT22;25615;48.602;1.696;2024-03-29T16:38:45;13.10;99.90
39397;DHT22;25615;48.602;1.696;2024-03-29T16:41:10;13.10;99.90
39397;DHT22;25615;48.602;1.696;2024-03-29T16:43:36;13.00;99.90
39397;DHT22;25615;48.602;1.696;2024-03-29T16:46:01;13.00;99.90
39397;DHT22;25615;48.602;1.696;2024-03-29T16:48:27;12.90;99.90
39397;DHT22;25615;48.602;1.696;2024-03-29T16:50:53;12.80;99.90
39397;DHT22;25615;48.602;1.696;2024-03-29T16:53:18;12.80;99.90
39397;DHT22;25615;48.602;1.696;2024-03-29T16:55:44;12.70;99.90
39397;DHT22;25615;48.602;1.696;2024-03-29T16:58:10;12.80;99.90
39397;DHT22;25615;48.602;1.696;2024-03-29T17:00:35;12.70;99.90
39397;DHT22;25615;48.602;1.696;2024-03-29T17:03:01;12.70;99.90
39397;DHT22;25615;48.602;1.696;2024-03-29T17:05:26;12.60;99.90
39397;DHT22;25615;48.602;1.696;2024-03-29T17:07:52;12.60;99.90
39397;DHT22;25615;48.602;1.696;2024-03-29T17:10:18;12.70;99.90
39397;DHT22;25615;48.602;1.696;2024-03-29T17:12:43;12.60;99.90
39397;DHT22;25615;48.602;1.696;2024-03-29T17:15:09;12.70;99.90
39397;DHT22;25615;48.602;1.696;2024-03-29T17:17:35;12.70;99.90
39397;DHT22;25615;48.602;1.696;2024-03-29T17:20:00;12.80;99.90
39397;DHT22;25615;48.602;1.696;2024-03-29T17:22:26;12.80;99.90
39397;DHT22;25615;48.602;1.696;2024-03-29T17:24:54;12.80;99.90
39397;DHT22;25615;48.602;1.696;2024-03-29T17:27:21;12.80;99.90
39397;DHT22;25615;48.602;1.696;2024-03-29T17:29:47;12.90;99.90
39397;DHT22;25615;48.602;1.696;2024-03-29T17:32:12;12.90;99.90
39397;DHT22;25615;48.602;1.696;2024-03-29T17:34:38;12.90;99.90
39397;DHT22;25615;48.602;1.696;2024-03-29T17:37:04;12.90;99.90
39397;DHT22;25615;48.602;1.696;2024-03-29T17:39:29;12.90;99.90
39397;DHT22;25615;48.602;1.696;2024-03-29T17:41:55;12.90;99.90
39397;DHT22;25615;48.602;1.696;2024-03-29T17:44:21;12.80;99.90
39397;DHT22;25615;48.602;1.696;2024-03-29T17:46:46;12.70;99.90
39397;DHT22;25615;48.602;1.696;2024-03-29T17:49:14;12.80;99.90
39397;DHT22;25615;48.602;1.696;2024-03-29T17:51:39;12.70;99.90
39397;DHT22;25615;48.602;1.696;2024-03-29T17:54:05;12.70;99.90
39397;DHT22;25615;48.602;1.696;2024-03-29T17:56:31;12.70;99.90
39397;DHT22;25615;48.602;1.696;2024-03-29T17:58:57;12.70;99.90
39397;DHT22;25615;48.602;1.696;2024-03-29T18:01:23;12.70;99.90
39397;DHT22;25615;48.602;1.696;2024-03-29T18:03:49;12.70;99.90
39397;DHT22;25615;48.602;1.696;2024-03-29T18:06:15;12.60;99.90
39397;DHT22;25615;48.602;1.696;2024-03-29T18:08:42;12.60;99.90
39397;DHT22;25615;48.602;1.696;2024-03-29T18:11:08;12.60;99.90
39397;DHT22;25615;48.602;1.696;2024-03-29T18:13:33;12.60;99.90
39397;DHT22;25615;48.602;1.696;2024-03-29T18:16:06;12.60;99.90
39397;DHT22;25615;48.602;1.696;2024-03-29T18:18:32;12.50;99.90
39397;DHT22;25615;48.602;1.696;2024-03-29T18:20:58;12.40;99.90
39397;DHT22;25615;48.602;1.696;2024-03-29T18:23:24;12.40;99.90
39397;DHT22;25615;48.602;1.696;2024-03-29T18:25:49;12.30;99.90
39397;DHT22;25615;48.602;1.696;2024-03-29T18:28:16;12.30;99.90
39397;DHT22;25615;48.602;1.696;2024-03-29T18:30:42;12.20;99.90
39397;DHT22;25615;48.602;1.696;2024-03-29T18:33:07;12.20;99.90
39397;DHT22;25615;48.602;1.696;2024-03-29T18:35:33;12.20;99.90
39397;DHT22;25615;48.602;1.696;2024-03-29T18:38:00;12.10;99.90
39397;DHT22;25615;48.602;1.696;2024-03-29T18:40:25;12.10;99.90
39397;DHT22;25615;48.602;1.696;2024-03-29T18:42:51;12.00;99.90
39397;DHT22;25615;48.602;1.696;2024-03-29T18:45:20;12.00;99.90
39397;DHT22;25615;48.602;1.696;2024-03-29T18:47:52;12.00;99.90
39397;DHT22;25615;48.602;1.696;2024-03-29T18:50:19;12.00;99.90
39397;DHT22;25615;48.602;1.696;2024-03-29T18:52:45;12.00;99.90
39397;DHT22;25615;48.602;1.696;2024-03-29T18:55:11;11.90;99.90
39397;DHT22;25615;48.602;1.696;2024-03-29T18:57:37;11.90;99.90
39397;DHT22;25615;48.602;1.696;2024-03-29T19:00:08;11.90;99.90
39397;DHT22;25615;48.602;1.696;2024-03-29T19:02:34;11.80;99.90
39397;DHT22;25615;48.602;1.696;2024-03-29T19:05:00;11.80;99.90
39397;DHT22;25615;48.602;1.696;2024-03-29T19:07:26;11.70;99.90
39397;DHT22;25615;48.602;1.696;2024-03-29T19:09:51;11.60;99.90
39397;DHT22;25615;48.602;1.696;2024-03-29T19:12:17;11.60;99.90
39397;DHT22;25615;48.602;1.696;2024-03-29T19:14:48;11.50;99.90
39397;DHT22;25615;48.602;1.696;2024-03-29T19:17:14;11.50;99.90
39397;DHT22;25615;48.602;1.696;2024-03-29T19:19:40;11.40;99.90
39397;DHT22;25615;48.602;1.696;2024-03-29T19:22:06;11.40;99.90
39397;DHT22;25615;48.602;1.696;2024-03-29T19:24:31;11.40;99.90
39397;DHT22;25615;48.602;1.696;2024-03-29T19:26:57;11.30;99.90
39397;DHT22;25615;48.602;1.696;2024-03-29T19:29:23;11.30;99.90
39397;DHT22;25615;48.602;1.696;2024-03-29T19:31:48;11.30;99.90
39397;DHT22;25615;48.602;1.696;2024-03-29T19:34:14;11.20;99.90
39397;DHT22;25615;48.602;1.696;2024-03-29T19:36:40;11.20;99.90
39397;DHT22;25615;48.602;1.696;2024-03-29T19:39:06;11.10;99.90
39397;DHT22;25615;48.602;1.696;2024-03-29T19:41:39;11.10;99.90
39397;DHT22;25615;48.602;1.696;2024-03-29T19:44:05;11.10;99.90
39397;DHT22;25615;48.602;1.696;2024-03-29T19:46:31;11.00;99.90
39397;DHT22;25615;48.602;1.696;2024-03-29T19:48:57;11.00;99.90
39397;DHT22;25615;48.602;1.696;2024-03-29T19:51:23;10.90;99.90
39397;DHT22;25615;48.602;1.696;2024-03-29T19:53:49;10.90;99.90
39397;DHT22;25615;48.602;1.696;2024-03-29T19:56:16;10.80;99.90
39397;DHT22;25615;48.602;1.696;2024-03-29T19:58:44;10.80;99.90
39397;DHT22;25615;48.602;1.696;2024-03-29T20:01:09;10.80;99.90
39397;DHT22;25615;48.602;1.696;2024-03-29T20:03:35;10.80;99.90
39397;DHT22;25615;48.602;1.696;2024-03-29T20:06:01;10.70;99.90
39397;DHT22;25615;48.602;1.696;2024-03-29T20:08:26;10.70;99.90
39397;DHT22;25615;48.602;1.696;2024-03-29T20:10:52;10.70;99.90
39397;DHT22;25615;48.602;1.696;2024-03-29T20:13:17;10.70;99.90
39397;DHT22;25615;48.602;1.696;2024-03-29T20:15:47;10.60;99.90
39397;DHT22;25615;48.602;1.696;2024-03-29T20:18:14;10.60;99.90
39397;DHT22;25615;48.602;1.696;2024-03-29T20:20:50;10.60;99.90
39397;DHT22;25615;48.602;1.696;2024-03-29T20:23:16;10.60;99.90
39397;DHT22;25615;48.602;1.696;2024-03-29T20:25:42;10.50;99.90
39397;DHT22;25615;48.602;1.696;2024-03-29T20:28:09;10.50;99.90
39397;DHT22;25615;48.602;1.696;2024-03-29T20:30:34;10.60;99.90
39397;DHT22;25615;48.602;1.696;2024-03-29T20:33:00;10.50;99.90
39397;DHT22;25615;48.602;1.696;2024-03-29T20:35:26;10.50;99.90
39397;DHT22;25615;48.602;1.696;2024-03-29T20:37:51;10.40;99.90
39397;DHT22;25615;48.602;1.696;2024-03-29T20:40:20;10.40;99.90
39397;DHT22;25615;48.602;1.696;2024-03-29T20:42:45;10.40;99.90
39397;DHT22;25615;48.602;1.696;2024-03-29T20:45:11;10.40;99.90
39397;DHT22;25615;48.602;1.696;2024-03-29T20:47:37;10.30;99.90
39397;DHT22;25615;48.602;1.696;2024-03-29T20:50:04;10.30;99.90
39397;DHT22;25615;48.602;1.696;2024-03-29T20:52:30;10.30;99.90
39397;DHT22;25615;48.602;1.696;2024-03-29T20:54:56;10.30;99.90
39397;DHT22;25615;48.602;1.696;2024-03-29T20:57:25;10.30;99.90
39397;DHT22;25615;48.602;1.696;2024-03-29T20:59:52;10.30;99.90
39397;DHT22;25615;48.602;1.696;2024-03-29T21:02:17;10.20;99.90
39397;DHT22;25615;48.602;1.696;2024-03-29T21:05:02;10.20;99.90
39397;DHT22;25615;48.602;1.696;2024-03-29T21:07:47;10.20;99.90
39397;DHT22;25615;48.602;1.696;2024-03-29T21:10:13;10.20;99.90
39397;DHT22;25615;48.602;1.696;2024-03-29T21:12:40;10.20;99.90
39397;DHT22;25615;48.602;1.696;2024-03-29T21:15:06;10.10;99.90
39397;DHT22;25615;48.602;1.696;2024-03-29T21:17:32;10.20;99.90
39397;DHT22;25615;48.602;1.696;2024-03-29T21:20:00;10.20;99.90
39397;DHT22;25615;48.602;1.696;2024-03-29T21:22:25;10.20;99.90
39397;DHT22;25615;48.602;1.696;2024-03-29T21:24:51;10.10;99.90
39397;DHT22;25615;48.602;1.696;2024-03-29T21:27:18;10.10;99.90
39397;DHT22;25615;48.602;1.696;2024-03-29T21:29:44;10.10;99.90
39397;DHT22;25615;48.602;1.696;2024-03-29T21:32:09;10.10;99.90
39397;DHT22;25615;48.602;1.696;2024-03-29T21:34:35;10.10;99.90
39397;DHT22;25615;48.602;1.696;2024-03-29T21:37:00;10.10;99.90
39397;DHT22;25615;48.602;1.696;2024-03-29T21:39:26;10.10;99.90
39397;DHT22;25615;48.602;1.696;2024-03-29T21:41:51;10.10;99.90
39397;DHT22;25615;48.602;1.696;2024-03-29T21:44:18;10.10;99.90
39397;DHT22;25615;48.602;1.696;2024-03-29T21:46:45;10.10;99.90
39397;DHT22;25615;48.602;1.696;2024-03-29T21:49:10;10.10;99.90
39397;DHT22;25615;48.602;1.696;2024-03-29T21:51:36;10.10;99.90
39397;DHT22;25615;48.602;1.696;2024-03-29T21:54:01;10.20;99.90
39397;DHT22;25615;48.602;1.696;2024-03-29T21:56:27;10.10;99.90
39397;DHT22;25615;48.602;1.696;2024-03-29T21:58:52;10.20;99.90
39397;DHT22;25615;48.602;1.696;2024-03-29T22:01:18;10.20;99.90
39397;DHT22;25615;48.602;1.696;2024-03-29T22:03:49;10.30;99.90
39397;DHT22;25615;48.602;1.696;2024-03-29T22:06:14;10.30;99.90
39397;DHT22;25615;48.602;1.696;2024-03-29T22:08:40;10.30;99.90
39397;DHT22;25615;48.602;1.696;2024-03-29T22:11:06;10.30;99.90
39397;DHT22;25615;48.602;1.696;2024-03-29T22:13:31;10.20;99.90
39397;DHT22;25615;48.602;1.696;2024-03-29T22:15:57;10.20;99.90
39397;DHT22;25615;48.602;1.696;2024-03-29T22:18:22;10.20;99.90
39397;DHT22;25615;48.602;1.696;2024-03-29T22:20:48;10.20;99.90
39397;DHT22;25615;48.602;1.696;2024-03-29T22:23:13;10.10;99.90
39397;DHT22;25615;48.602;1.696;2024-03-29T22:25:39;10.10;99.90
39397;DHT22;25615;48.602;1.696;2024-03-29T22:28:05;10.10;99.90
39397;DHT22;25615;48.602;1.696;2024-03-29T22:30:30;10.00;99.90
39397;DHT22;25615;48.602;1.696;2024-03-29T22:32:56;10.10;99.90
39397;DHT22;25615;48.602;1.696;2024-03-29T22:35:24;10.00;99.90
39397;DHT22;25615;48.602;1.696;2024-03-29T22:37:49;10.00;99.90
39397;DHT22;25615;48.602;1.696;2024-03-29T22:40:15;10.00;99.90
39397;DHT22;25615;48.602;1.696;2024-03-29T22:42:41;9.90;99.90
39397;DHT22;25615;48.602;1.696;2024-03-29T22:45:07;9.90;99.90
39397;DHT22;25615;48.602;1.696;2024-03-29T22:47:33;9.80;99.90
39397;DHT22;25615;48.602;1.696;2024-03-29T22:49:58;9.80;99.90
39397;DHT22;25615;48.602;1.696;2024-03-29T22:52:24;9.80;99.90
39397;DHT22;25615;48.602;1.696;2024-03-29T22:54:50;9.90;99.90
39397;DHT22;25615;48.602;1.696;2024-03-29T22:57:15;9.80;99.90
39397;DHT22;25615;48.602;1.696;2024-03-29T22:59:41;9.80;99.90
39397;DHT22;25615;48.602;1.696;2024-03-29T23:02:07;9.80;99.90
39397;DHT22;25615;48.602;1.696;2024-03-29T23:04:33;9.80;99.90
39397;DHT22;25615;48.602;1.696;2024-03-29T23:06:59;9.70;99.90
39397;DHT22;25615;48.602;1.696;2024-03-29T23:09:25;9.70;99.90
39397;DHT22;25615;48.602;1.696;2024-03-29T23:11:51;9.70;99.90
39397;DHT22;25615;48.602;1.696;2024-03-29T23:14:17;9.70;99.90
39397;DHT22;25615;48.602;1.696;2024-03-29T23:16:45;9.70;99.90
39397;DHT22;25615;48.602;1.696;2024-03-29T23:19:11;9.70;99.90
39397;DHT22;25615;48.602;1.696;2024-03-29T23:21:37;9.70;99.90
39397;DHT22;25615;48.602;1.696;2024-03-29T23:24:03;9.80;99.90
39397;DHT22;25615;48.602;1.696;2024-03-29T23:26:29;9.70;99.90
39397;DHT22;25615;48.602;1.696;2024-03-29T23:28:55;9.60;99.90
39397;DHT22;25615;48.602;1.696;2024-03-29T23:31:20;9.60;99.90
39397;DHT22;25615;48.602;1.696;2024-03-29T23:33:46;9.60;99.90
39397;DHT22;25615;48.602;1.696;2024-03-29T23:36:13;9.70;99.90
39397;DHT22;25615;48.602;1.696;2024-03-29T23:38:38;9.60;99.90
39397;DHT22;25615;48.602;1.696;2024-03-29T23:41:04;9.60;99.90
39397;DHT22;25615;48.602;1.696;2024-03-29T23:43:30;9.60;99.90
39397;DHT22;25615;48.602;1.696;2024-03-29T23:46:05;9.50;99.90
39397;DHT22;25615;48.602;1.696;2024-03-29T23:48:32;9.60;99.90
39397;DHT22;25615;48.602;1.696;2024-03-29T23:50:59;9.50;99.90
39397;DHT22;25615;48.602;1.696;2024-03-29T23:53:26;9.50;99.90
39397;DHT22;25615;48.602;1.696;2024-03-29T23:55:56;9.50;99.90
39397;DHT22;25615;48.602;1.696;2024-03-29T23:58:22;9.40;99.90
